Time;durP1;ratioP1;P1;durP2;ratioP2;P2;SDS_P1;SDS_P2;PMS_P1;PMS_P2;Temp;Humidity;BMP_temperature;BMP_pressure;BME280_temperature;BME280_humidity;BME280_pressure;Samples;Min_cycle;Max_cycle;Signal;HPM_P1;HPM_P2
2021/12/18 00:00:42;;;;;;;;;;;;;;;-144.99;100.00;52635.63;5089454;28;19973;-72
2021/12/18 00:03:08;;;;;;;;;;;;;;;-144.99;100.00;52605.03;5086548;28;20012;-71
2021/12/18 00:05:35;;;;;;;;;;;;;;;-144.99;100.00;52639.69;5090369;28;19976;-72
2021/12/18 00:08:01;;;;;;;;;;;;;;;-144.99;100.00;52688.63;5090748;28;19985;-66
2021/12/18 00:10:29;;;;;;;;;;;;;;;-144.99;100.00;52688.63;5089479;28;19983;-72
2021/12/18 00:12:56;;;;;;;;;;;;;;;-144.99;100.00;52686.59;5087986;28;20215;-72
2021/12/18 00:15:23;;;;;;;;;;;;;;;-144.99;100.00;52694.72;5089420;28;19992;-71
2021/12/18 00:17:50;;;;;;;;;;;;;;;-144.99;100.00;52651.94;5090701;28;19980;-71
2021/12/18 00:20:17;;;;;;;;;;;;;;;-144.99;100.00;52680.47;5090683;28;20213;-72
2021/12/18 00:22:43;;;;;;;;;;;;;;;-144.99;100.00;52639.69;5081058;28;20076;-72
2021/12/18 00:25:10;;;;;;;;;;;;;;;-144.99;100.00;52713.09;5090015;28;20393;-72
2021/12/18 00:27:38;;;;;;;;;;;;;;;-144.99;100.00;52625.44;5090528;28;19980;-72
2021/12/18 00:30:06;;;;;;;;;;;;;;;-144.99;100.00;52668.22;5090142;28;20406;-73
2021/12/18 00:32:32;;;;;;;;;;;;;;;-144.99;100.00;52651.94;5082949;28;19984;-73
2021/12/18 00:34:58;;;;;;;;;;;;;;;-144.99;100.00;52704.94;5088261;28;20002;-73
2021/12/18 00:37:25;;;;;;;;;;;;;;;-144.99;100.00;52676.38;5090438;28;20019;-70
2021/12/18 00:39:55;;;;;;;;;;;;;;;-144.99;100.00;52647.84;5077100;28;19984;-71
2021/12/18 00:42:36;;;;;;;;;;;;;;;-144.99;100.00;52670.28;5089897;28;19983;-70
2021/12/18 00:45:05;;;;;;;;;;;;;;;-144.99;100.00;52641.72;5108895;28;20000;-71
2021/12/18 00:47:31;;;;;;;;;;;;;;;-144.99;100.00;52680.47;5107030;28;19991;-70
2021/12/18 00:49:58;;;;;;;;;;;;;;;-144.99;100.00;52668.22;5104867;28;20024;-72
2021/12/18 00:52:24;;;;;;;;;;;;;;;-144.99;100.00;52676.38;5100768;28;19991;-72
2021/12/18 00:54:51;;;;;;;;;;;;;;;-144.99;100.00;52700.84;5090002;28;20004;-71
2021/12/18 00:57:17;;;;;;;;;;;;;;;-144.99;100.00;52631.53;5106259;28;19996;-72
2021/12/18 00:59:44;;;;;;;;;;;;;;;-144.99;100.00;52647.84;5104141;28;19976;-72
2021/12/18 01:02:11;;;;;;;;;;;;;;;-144.99;100.00;52676.38;5101296;28;19980;-66
2021/12/18 01:04:38;;;;;;;;;;;;;;;-144.99;100.00;52704.94;5093857;28;19988;-66
2021/12/18 01:07:04;;;;;;;;;;;;;;;-144.99;100.00;52651.94;5086601;28;20024;-65
2021/12/18 01:09:46;;;;;;;;;;;;;;;-144.99;100.00;52682.50;4733807;28;9999933;-66
2021/12/18 01:12:12;;;;;;;;;;;;;;;-144.99;100.00;52680.47;5074346;28;20442;-66
2021/12/18 01:14:55;;;;;;;;;;;;;;;-144.99;100.00;52731.44;5083200;28;20036;-67
2021/12/18 01:22:51;;;;;;;;;;;;;;;-144.99;100.00;52639.69;5090684;28;20003;-66
2021/12/18 01:25:19;;;;;;;;;;;;;;;-144.99;100.00;52672.31;5085772;28;19970;-66
2021/12/18 01:27:45;;;;;;;;;;;;;;;-144.99;100.00;52709.00;5091982;28;20386;-66
2021/12/18 01:30:13;;;;;;;;;;;;;;;-144.99;100.00;52647.84;5091846;28;19988;-66
2021/12/18 01:32:43;;;;;;;;;;;;;;;-144.99;100.00;52688.63;5091093;28;20387;-67
2021/12/18 01:35:10;;;;;;;;;;;;;;;-144.99;100.00;52668.22;5096159;28;19989;-67
2021/12/18 01:37:36;;;;;;;;;;;;;;;-144.99;100.00;52658.03;5106143;28;19992;-66
2021/12/18 01:40:04;;;;;;;;;;;;;;;-144.99;100.00;52643.78;5103518;28;19980;-66
2021/12/18 01:43:16;;;;;;;;;;;;;;;-144.99;100.00;52706.97;5105049;28;19986;-69
2021/12/18 01:45:37;;;;;;;;;;;;;;;-144.99;100.00;52668.22;5095666;28;20361;-69
2021/12/18 01:53:33;;;;;;;;;;;;;;;-144.99;100.00;52668.22;5091721;28;19999;-69
2021/12/18 01:55:59;;;;;;;;;;;;;;;-144.99;100.00;52651.94;5090253;28;19977;-68
2021/12/18 01:58:27;;;;;;;;;;;;;;;-144.99;100.00;52631.53;5091758;28;20007;-68
2021/12/18 02:00:54;;;;;;;;;;;;;;;-144.99;100.00;52696.78;5087586;28;19972;-72
2021/12/18 02:03:22;;;;;;;;;;;;;;;-144.99;100.00;52668.22;5091445;28;20559;-69
2021/12/18 02:05:49;;;;;;;;;;;;;;;-144.99;100.00;52664.16;5090935;28;20367;-67
2021/12/18 02:08:18;;;;;;;;;;;;;;;-144.99;100.00;52656.00;5091546;28;19981;-68
2021/12/18 02:10:47;;;;;;;;;;;;;;;-144.99;100.00;52660.09;5089276;28;20082;-70
2021/12/18 02:13:25;;;;;;;;;;;;;;;-144.99;100.00;52641.72;5088634;28;19976;-70
2021/12/18 02:21:24;;;;;;;;;;;;;;;-144.99;100.00;52651.94;5058789;28;20023;-62
2021/12/18 02:23:51;;;;;;;;;;;;;;;-144.99;100.00;52647.84;5066939;28;20019;-62
2021/12/18 02:26:18;;;;;;;;;;;;;;;-144.99;100.00;52668.22;5067661;28;19981;-63
2021/12/18 02:28:47;;;;;;;;;;;;;;;-144.99;100.00;52692.69;5061941;28;20306;-62
2021/12/18 02:31:14;;;;;;;;;;;;;;;-144.99;100.00;52658.03;5067531;28;20369;-62
2021/12/18 02:33:41;;;;;;;;;;;;;;;-144.99;100.00;52647.84;5065710;28;20644;-61
2021/12/18 02:36:09;;;;;;;;;;;;;;;-144.99;100.00;52680.47;5067398;28;19977;-61
2021/12/18 02:38:58;;;;;;;;;;;;;;;-144.99;100.00;52670.28;5063031;28;20428;-61
2021/12/18 02:41:30;;;;;;;;;;;;;;;-144.99;100.00;52684.53;5067728;28;20365;-62
2021/12/18 02:43:59;;;;;;;;;;;;;;;-144.99;100.00;52641.72;5068052;28;20041;-60
2021/12/18 02:46:25;;;;;;;;;;;;;;;-144.99;100.00;52676.38;5067461;28;19988;-61
2021/12/18 02:48:53;;;;;;;;;;;;;;;-144.99;100.00;52670.28;5064499;28;19973;-61
2021/12/18 02:51:21;;;;;;;;;;;;;;;-144.99;100.00;52653.97;5064139;28;19987;-60
2021/12/18 02:53:49;;;;;;;;;;;;;;;-144.99;100.00;52684.53;5065063;28;19992;-61
2021/12/18 02:56:16;;;;;;;;;;;;;;;-144.99;100.00;52688.63;5065047;28;20343;-62
2021/12/18 02:58:43;;;;;;;;;;;;;;;-144.99;100.00;52643.78;5066164;28;19981;-66
2021/12/18 03:01:12;;;;;;;;;;;;;;;-144.99;100.00;52666.19;5058425;28;20008;-61
2021/12/18 03:03:41;;;;;;;;;;;;;;;-144.99;100.00;52651.94;5066789;28;20497;-64
2021/12/18 03:06:19;;;;;;;;;;;;;;;-144.99;100.00;52676.38;5067757;28;20075;-65
2021/12/18 03:08:52;;;;;;;;;;;;;;;-144.99;100.00;52611.16;5065941;28;20366;-62
2021/12/18 03:25:04;;;;;;;;;;;;;;;-144.99;100.00;52623.38;5060095;28;20450;-63
2021/12/18 03:27:32;;;;;;;;;;;;;;;-144.99;100.00;52627.47;5068171;28;19981;-65
2021/12/18 03:29:58;;;;;;;;;;;;;;;-144.99;100.00;52631.53;5064808;28;19984;-63
2021/12/18 03:32:25;;;;;;;;;;;;;;;-144.99;100.00;52682.50;5067870;28;19980;-64
2021/12/18 03:34:52;;;;;;;;;;;;;;;-144.99;100.00;52694.72;5067380;28;20000;-64
2021/12/18 03:37:18;;;;;;;;;;;;;;;-144.99;100.00;52643.78;5067857;28;20008;-64
2021/12/18 03:39:45;;;;;;;;;;;;;;;-144.99;100.00;52664.16;5067072;28;20027;-63
2021/12/18 03:42:11;;;;;;;;;;;;;;;-144.99;100.00;52656.00;5061308;28;19977;-60
2021/12/18 03:44:39;;;;;;;;;;;;;;;-144.99;100.00;52709.00;5067406;28;19997;-61
2021/12/18 03:47:07;;;;;;;;;;;;;;;-144.99;100.00;52633.59;5071927;28;20047;-61
2021/12/18 03:49:33;;;;;;;;;;;;;;;-144.99;100.00;52656.00;5071385;28;19981;-62
2021/12/18 03:52:00;;;;;;;;;;;;;;;-144.99;100.00;52660.09;5066707;28;20345;-61
2021/12/18 03:54:26;;;;;;;;;;;;;;;-144.99;100.00;52635.63;5070612;28;19993;-61
2021/12/18 03:56:53;;;;;;;;;;;;;;;-144.99;100.00;52623.38;5071078;28;20361;-63
2021/12/18 03:59:19;;;;;;;;;;;;;;;-144.99;100.00;52651.94;5071470;28;19980;-62
2021/12/18 04:01:47;;;;;;;;;;;;;;;-144.99;100.00;52668.22;5067205;28;19984;-63
2021/12/18 04:04:14;;;;;;;;;;;;;;;-144.99;100.00;52668.22;5066474;28;20504;-62
2021/12/18 04:06:42;;;;;;;;;;;;;;;-144.99;100.00;52631.53;5071738;28;20425;-62
2021/12/18 04:09:10;;;;;;;;;;;;;;;-144.99;100.00;52700.84;5070445;28;19981;-62
2021/12/18 04:11:37;;;;;;;;;;;;;;;-144.99;100.00;52680.47;5069025;28;20012;-62
2021/12/18 04:14:03;;;;;;;;;;;;;;;-144.99;100.00;52643.78;5058923;28;20492;-62
2021/12/18 04:16:30;;;;;;;;;;;;;;;-144.99;100.00;52651.94;5070224;28;20059;-62
2021/12/18 04:18:57;;;;;;;;;;;;;;;-144.99;100.00;52692.69;5070353;28;20024;-63
2021/12/18 04:21:24;;;;;;;;;;;;;;;-144.99;100.00;52656.00;5069499;28;19984;-64
2021/12/18 04:23:50;;;;;;;;;;;;;;;-144.99;100.00;52649.88;5061203;28;20339;-64
2021/12/18 04:26:17;;;;;;;;;;;;;;;-144.99;100.00;52664.16;5070352;28;19977;-64
2021/12/18 04:28:43;;;;;;;;;;;;;;;-144.99;100.00;52672.31;5069826;28;19980;-64
2021/12/18 04:31:09;;;;;;;;;;;;;;;-144.99;100.00;52680.47;5069818;28;19966;-61
2021/12/18 04:33:36;;;;;;;;;;;;;;;-144.99;100.00;52645.81;5067173;28;20003;-60
2021/12/18 04:36:04;;;;;;;;;;;;;;;-144.99;100.00;52656.00;5070245;28;19973;-61
2021/12/18 04:38:31;;;;;;;;;;;;;;;-144.99;100.00;52692.69;5069734;28;20488;-61
2021/12/18 04:40:58;;;;;;;;;;;;;;;-144.99;100.00;52682.50;5070500;28;19981;-61
2021/12/18 04:43:24;;;;;;;;;;;;;;;-144.99;100.00;52639.69;5065496;28;20286;-61
2021/12/18 04:45:51;;;;;;;;;;;;;;;-144.99;100.00;52647.84;5069843;28;19977;-61
2021/12/18 04:48:20;;;;;;;;;;;;;;;-144.99;100.00;52672.31;5069602;28;20063;-60
2021/12/18 04:50:47;;;;;;;;;;;;;;;-144.99;100.00;52615.25;5069978;28;19988;-60
2021/12/18 04:53:14;;;;;;;;;;;;;;;-144.99;100.00;52631.53;5063883;28;19977;-61
2021/12/18 04:55:41;;;;;;;;;;;;;;;-144.99;100.00;52625.44;5065280;28;19972;-61
2021/12/18 04:58:07;;;;;;;;;;;;;;;-144.99;100.00;52631.53;5068853;28;19996;-61
2021/12/18 05:00:38;;;;;;;;;;;;;;;-144.99;100.00;52668.22;5069659;28;19980;-61
2021/12/18 05:03:06;;;;;;;;;;;;;;;-144.99;100.00;52668.22;5068175;28;19984;-60
2021/12/18 05:05:33;;;;;;;;;;;;;;;-144.99;100.00;52649.88;5068180;28;20076;-61
2021/12/18 05:07:59;;;;;;;;;;;;;;;-144.99;100.00;52643.78;5069429;28;19977;-61
2021/12/18 05:10:27;;;;;;;;;;;;;;;-144.99;100.00;52635.63;5069279;28;20188;-61
2021/12/18 05:12:54;;;;;;;;;;;;;;;-144.99;100.00;52668.22;5069505;28;20371;-61
2021/12/18 05:15:20;;;;;;;;;;;;;;;-144.99;100.00;52676.38;5066867;28;19992;-61
2021/12/18 05:17:47;;;;;;;;;;;;;;;-144.99;100.00;52633.59;5069489;28;20015;-60
2021/12/18 05:20:13;;;;;;;;;;;;;;;-144.99;100.00;52692.69;5068385;28;19981;-60
2021/12/18 05:22:40;;;;;;;;;;;;;;;-144.99;100.00;52639.69;5069296;28;20452;-60
2021/12/18 05:25:07;;;;;;;;;;;;;;;-144.99;100.00;52651.94;5066406;28;19996;-61
2021/12/18 05:27:36;;;;;;;;;;;;;;;-144.99;100.00;52664.16;5068955;28;19984;-60
2021/12/18 05:30:02;;;;;;;;;;;;;;;-144.99;100.00;52678.44;5068638;28;20075;-59
2021/12/18 05:32:28;;;;;;;;;;;;;;;-144.99;100.00;52678.44;5068692;28;19981;-62
2021/12/18 05:34:55;;;;;;;;;;;;;;;-144.99;100.00;52676.38;5065957;28;19989;-62
2021/12/18 05:37:32;;;;;;;;;;;;;;;-144.99;100.00;52688.63;5068319;28;19993;-60
2021/12/18 05:39:59;;;;;;;;;;;;;;;-144.99;100.00;52668.22;5065922;28;19986;-61
2021/12/18 05:42:25;;;;;;;;;;;;;;;-144.99;100.00;52668.22;5069067;28;19987;-60
2021/12/18 05:44:53;;;;;;;;;;;;;;;-144.99;100.00;52676.38;5067139;28;20033;-60
2021/12/18 05:47:19;;;;;;;;;;;;;;;-144.99;100.00;52676.38;5068638;28;20390;-63
2021/12/18 05:49:45;;;;;;;;;;;;;;;-144.99;100.00;52647.84;5068887;28;19985;-60
2021/12/18 05:52:12;;;;;;;;;;;;;;;-144.99;100.00;52637.66;5068413;28;20464;-60
2021/12/18 05:54:39;;;;;;;;;;;;;;;-144.99;100.00;52627.47;5066246;28;20099;-61
2021/12/18 05:57:05;;;;;;;;;;;;;;;-144.99;100.00;52676.38;5067928;28;19984;-60
2021/12/18 05:59:32;;;;;;;;;;;;;;;-144.99;100.00;52656.00;5068450;28;19981;-60
2021/12/18 06:02:00;;;;;;;;;;;;;;;-144.99;100.00;52686.59;5065460;28;20021;-65
2021/12/18 06:04:27;;;;;;;;;;;;;;;-144.99;100.00;52688.63;5067582;28;19996;-60
2021/12/18 06:07:03;;;;;;;;;;;;;;;-144.99;100.00;52670.28;5066141;28;19983;-60
2021/12/18 06:09:29;;;;;;;;;;;;;;;-144.99;100.00;52680.47;5067256;28;20010;-60
2021/12/18 06:11:56;;;;;;;;;;;;;;;-144.99;100.00;52651.94;5068089;28;19981;-61
2021/12/18 06:14:22;;;;;;;;;;;;;;;-144.99;100.00;52684.53;5067576;28;20007;-64
2021/12/18 06:16:48;;;;;;;;;;;;;;;-144.99;100.00;52643.78;5065299;28;19973;-62
2021/12/18 06:19:16;;;;;;;;;;;;;;;-144.99;100.00;52676.38;5068153;28;20000;-62
2021/12/18 06:21:42;;;;;;;;;;;;;;;-144.99;100.00;52660.09;5067640;28;19984;-62
2021/12/18 06:24:09;;;;;;;;;;;;;;;-144.99;100.00;52668.22;5066896;28;20093;-61
2021/12/18 06:26:35;;;;;;;;;;;;;;;-144.99;100.00;52692.69;5067123;28;20056;-59
2021/12/18 06:29:01;;;;;;;;;;;;;;;-144.99;100.00;52678.44;5068186;28;19976;-59
2021/12/18 06:31:28;;;;;;;;;;;;;;;-144.99;100.00;52664.16;5068167;28;19988;-60
2021/12/18 06:33:54;;;;;;;;;;;;;;;-144.99;100.00;52643.78;5067151;28;19993;-59
2021/12/18 06:36:22;;;;;;;;;;;;;;;-144.99;100.00;52692.69;5066894;28;20192;-59
2021/12/18 06:38:48;;;;;;;;;;;;;;;-144.99;100.00;52668.22;5068942;28;20154;-59
2021/12/18 06:41:15;;;;;;;;;;;;;;;-144.99;100.00;52684.53;5069577;28;20072;-59
2021/12/18 06:43:41;;;;;;;;;;;;;;;-144.99;100.00;52660.09;5069357;28;20004;-59
2021/12/18 06:46:07;;;;;;;;;;;;;;;-144.99;100.00;52647.84;5069623;28;20428;-59
2021/12/18 06:48:34;;;;;;;;;;;;;;;-144.99;100.00;52680.47;5058702;28;19983;-59
2021/12/18 06:51:00;;;;;;;;;;;;;;;-144.99;100.00;52660.09;5068327;28;20433;-59
2021/12/18 06:53:28;;;;;;;;;;;;;;;-144.99;100.00;52639.69;5067909;28;20539;-59
2021/12/18 06:55:54;;;;;;;;;;;;;;;-144.99;100.00;52696.78;5067791;28;19980;-60
2021/12/18 06:58:20;;;;;;;;;;;;;;;-144.99;100.00;52631.53;5064936;28;20430;-60
2021/12/18 07:00:47;;;;;;;;;;;;;;;-144.99;100.00;52684.53;5065234;28;19977;-59
2021/12/18 07:03:13;;;;;;;;;;;;;;;-144.99;100.00;52668.22;5067667;28;19985;-59
2021/12/18 07:05:40;;;;;;;;;;;;;;;-144.99;100.00;52692.69;5067416;28;19980;-59
2021/12/18 07:08:06;;;;;;;;;;;;;;;-144.99;100.00;52696.78;5063026;28;20452;-59
2021/12/18 07:10:35;;;;;;;;;;;;;;;-144.99;100.00;52674.34;5062787;28;20333;-59
2021/12/18 07:13:02;;;;;;;;;;;;;;;-144.99;100.00;52688.63;5062428;28;20430;-59
2021/12/18 07:15:28;;;;;;;;;;;;;;;-144.99;100.00;52680.47;5067140;28;19997;-59
2021/12/18 07:17:55;;;;;;;;;;;;;;;-144.99;100.00;52656.00;5066032;28;19997;-60
2021/12/18 07:20:21;;;;;;;;;;;;;;;-144.99;100.00;52682.50;5068211;28;20022;-60
2021/12/18 07:22:48;;;;;;;;;;;;;;;-144.99;100.00;52658.03;5071646;28;19984;-60
2021/12/18 07:25:14;;;;;;;;;;;;;;;-144.99;100.00;52643.78;5070960;28;19997;-60
2021/12/18 07:27:43;;;;;;;;;;;;;;;-144.99;100.00;52692.69;5071546;28;20490;-61
2021/12/18 07:30:10;;;;;;;;;;;;;;;-144.99;100.00;52664.16;5068364;28;19984;-61
2021/12/18 07:32:37;;;;;;;;;;;;;;;-144.99;100.00;52639.69;5071517;28;20106;-61
2021/12/18 07:35:04;;;;;;;;;;;;;;;-144.99;100.00;52668.22;5070542;28;19997;-60
2021/12/18 07:37:30;;;;;;;;;;;;;;;-144.99;100.00;52680.47;5071440;28;19987;-61
2021/12/18 07:39:57;;;;;;;;;;;;;;;-144.99;100.00;52709.00;5068655;28;19993;-60
2021/12/18 07:42:23;;;;;;;;;;;;;;;-144.99;100.00;52678.44;5071198;28;19983;-60
2021/12/18 07:44:51;;;;;;;;;;;;;;;-144.99;100.00;52651.94;5066041;28;20031;-59
2021/12/18 07:47:17;;;;;;;;;;;;;;;-144.99;100.00;52676.38;5071180;28;19981;-59
2021/12/18 07:49:44;;;;;;;;;;;;;;;-144.99;100.00;52696.78;5062939;28;20455;-60
2021/12/18 07:52:12;;;;;;;;;;;;;;;-144.99;100.00;52664.16;5070997;28;19977;-59
2021/12/18 07:54:38;;;;;;;;;;;;;;;-144.99;100.00;52651.94;5070402;28;20009;-59
2021/12/18 07:57:05;;;;;;;;;;;;;;;-144.99;100.00;52623.38;5070701;28;19985;-60
2021/12/18 07:59:31;;;;;;;;;;;;;;;-144.99;100.00;52674.34;5066456;28;20095;-60
2021/12/18 08:02:00;;;;;;;;;;;;;;;-144.99;100.00;52680.47;5067339;28;19984;-60
2021/12/18 08:04:27;;;;;;;;;;;;;;;-144.99;100.00;52664.16;5069794;28;19993;-61
2021/12/18 08:06:53;;;;;;;;;;;;;;;-144.99;100.00;52641.72;5071125;28;20370;-61
2021/12/18 08:09:19;;;;;;;;;;;;;;;-144.99;100.00;52656.00;5069088;28;19972;-63
2021/12/18 08:11:46;;;;;;;;;;;;;;;-144.99;100.00;52664.16;5065621;28;19977;-62
2021/12/18 08:14:12;;;;;;;;;;;;;;;-144.99;100.00;52639.69;5070043;28;20067;-62
2021/12/18 08:16:39;;;;;;;;;;;;;;;-144.99;100.00;52668.22;5060056;28;20368;-62
2021/12/18 08:19:06;;;;;;;;;;;;;;;-144.99;100.00;52660.09;5087743;22;19997;-69
2021/12/18 08:21:33;;;;;;;;;;;;;;;-144.99;100.00;52631.53;5083947;28;19985;-72
2021/12/18 08:23:59;;;;;;;;;;;;;;;-144.99;100.00;52660.09;5083356;28;19997;-69
2021/12/18 08:26:26;;;;;;;;;;;;;;;-144.99;100.00;52645.81;5079848;28;20421;-69
2021/12/18 08:28:52;;;;;;;;;;;;;;;-144.99;100.00;52627.47;5082124;28;20510;-70
2021/12/18 08:31:18;;;;;;;;;;;;;;;-144.99;100.00;52668.22;5082986;28;19981;-69
2021/12/18 08:33:45;;;;;;;;;;;;;;;-144.99;100.00;52692.69;5079844;28;19993;-69
2021/12/18 08:36:12;;;;;;;;;;;;;;;-144.99;100.00;52639.69;5080636;28;19988;-71
2021/12/18 08:38:39;;;;;;;;;;;;;;;-144.99;100.00;52668.22;5073228;28;20170;-70
2021/12/18 08:41:05;;;;;;;;;;;;;;;-144.99;100.00;52643.78;5082390;28;19977;-71
2021/12/18 08:43:32;;;;;;;;;;;;;;;-144.99;100.00;52660.09;5083244;28;19996;-70
2021/12/18 08:45:58;;;;;;;;;;;;;;;-144.99;100.00;52631.53;5083497;28;19981;-70
2021/12/18 08:48:24;;;;;;;;;;;;;;;-144.99;100.00;52688.63;5075981;28;19987;-70
2021/12/18 08:50:51;;;;;;;;;;;;;;;-144.99;100.00;52631.53;5080441;28;20475;-72
2021/12/18 08:53:18;;;;;;;;;;;;;;;-144.99;100.00;52639.69;5080930;28;19981;-71
2021/12/18 08:55:45;;;;;;;;;;;;;;;-144.99;100.00;52672.31;5079321;28;20068;-71
2021/12/18 08:58:12;;;;;;;;;;;;;;;-144.99;100.00;52660.09;5068844;28;19981;-72
2021/12/18 09:00:38;;;;;;;;;;;;;;;-144.99;100.00;52656.00;5072635;28;19977;-71
2021/12/18 09:03:05;;;;;;;;;;;;;;;-144.99;100.00;52615.25;5072415;28;19981;-69
2021/12/18 09:05:31;;;;;;;;;;;;;;;-144.99;100.00;52631.53;5072023;28;20050;-68
2021/12/18 09:07:58;;;;;;;;;;;;;;;-144.99;100.00;52647.84;5069971;28;19973;-68
2021/12/18 09:10:27;;;;;;;;;;;;;;;-144.99;100.00;52647.84;5072509;28;19977;-69
2021/12/18 09:12:54;;;;;;;;;;;;;;;-144.99;100.00;52656.00;5067941;28;20346;-68
2021/12/18 09:15:21;;;;;;;;;;;;;;;-144.99;100.00;52664.16;5072475;28;20000;-68
2021/12/18 09:17:47;;;;;;;;;;;;;;;-144.99;100.00;52668.22;5070660;28;19984;-68
2021/12/18 09:20:14;;;;;;;;;;;;;;;-144.99;100.00;52676.38;5071204;28;19993;-69
2021/12/18 09:22:40;;;;;;;;;;;;;;;-144.99;100.00;52617.28;5073106;28;20000;-69
2021/12/18 09:25:07;;;;;;;;;;;;;;;-144.99;100.00;52635.63;5071489;28;19997;-68
2021/12/18 09:27:36;;;;;;;;;;;;;;;-144.99;100.00;52647.84;5075713;28;19980;-68
2021/12/18 09:30:03;;;;;;;;;;;;;;;-144.99;100.00;52692.69;5070686;28;19973;-67
2021/12/18 09:32:30;;;;;;;;;;;;;;;-144.99;100.00;52639.69;5076668;28;19983;-67
2021/12/18 09:34:56;;;;;;;;;;;;;;;-144.99;100.00;52660.09;5078184;28;19997;-66
2021/12/18 09:37:23;;;;;;;;;;;;;;;-144.99;100.00;52631.53;5080680;28;19986;-72
2021/12/18 09:39:49;;;;;;;;;;;;;;;-144.99;100.00;52664.16;5078648;28;19995;-71
2021/12/18 09:42:15;;;;;;;;;;;;;;;-144.99;100.00;52623.38;5076459;28;19978;-70
2021/12/18 09:44:47;;;;;;;;;;;;;;;-144.99;100.00;52625.44;5076290;28;19997;-72
2021/12/18 09:47:14;;;;;;;;;;;;;;;-144.99;100.00;52631.53;5072225;28;19987;-72
2021/12/18 09:49:41;;;;;;;;;;;;;;;-144.99;100.00;52651.94;5070832;28;19973;-72
2021/12/18 09:52:07;;;;;;;;;;;;;;;-144.99;100.00;52623.38;5071981;28;19981;-72
2021/12/18 09:54:33;;;;;;;;;;;;;;;-144.99;100.00;52670.28;5072750;28;20003;-72
2021/12/18 09:57:00;;;;;;;;;;;;;;;-144.99;100.00;52660.09;5070173;28;19977;-72
2021/12/18 09:59:26;;;;;;;;;;;;;;;-144.99;100.00;52649.88;5068774;28;19999;-72
2021/12/18 10:01:54;;;;;;;;;;;;;;;-144.99;100.00;52643.78;5069053;28;19984;-72
2021/12/18 10:04:24;;;;;;;;;;;;;;;-144.99;100.00;52643.78;5071080;28;19974;-72
2021/12/18 10:06:51;;;;;;;;;;;;;;;-144.99;100.00;52668.22;5069683;28;19977;-72
2021/12/18 10:09:30;;;;;;;;;;;;;;;-144.99;100.00;52660.09;5073487;28;19984;-72
2021/12/18 10:11:57;;;;;;;;;;;;;;;-144.99;100.00;52678.44;5090228;28;19983;-71
2021/12/18 10:14:33;;;;;;;;;;;;;;;-144.99;100.00;52660.09;5086076;28;19992;-72
2021/12/18 10:17:00;;;;;;;;;;;;;;;-144.99;100.00;52676.38;5077773;28;19973;-72
2021/12/18 10:19:28;;;;;;;;;;;;;;;-144.99;100.00;52611.16;5059754;28;20000;-71
2021/12/18 10:21:55;;;;;;;;;;;;;;;-144.99;100.00;52645.81;5071897;28;20428;-71
2021/12/18 10:24:21;;;;;;;;;;;;;;;-144.99;100.00;52639.69;5070374;28;20001;-71
2021/12/18 10:26:48;;;;;;;;;;;;;;;-144.99;100.00;52653.97;5070828;28;20433;-70
2021/12/18 10:29:25;;;;;;;;;;;;;;;-144.99;100.00;52668.22;5071469;28;20064;-71
2021/12/18 10:31:52;;;;;;;;;;;;;;;-144.99;100.00;52664.16;5064067;28;20205;-71
2021/12/18 10:34:23;;;;;;;;;;;;;;;-144.99;100.00;52615.25;5069837;28;19993;-71
2021/12/18 10:37:08;;;;;;;;;;;;;;;-144.99;100.00;52668.22;5061538;28;19984;-71
2021/12/18 10:39:35;;;;;;;;;;;;;;;-144.99;100.00;52639.69;5070269;28;19999;-71
2021/12/18 10:42:14;;;;;;;;;;;;;;;-144.99;100.00;52664.16;5070260;28;20388;-71
2021/12/18 10:44:54;;;;;;;;;;;;;;;-144.99;100.00;52643.78;5070987;28;19993;-71
2021/12/18 10:47:21;;;;;;;;;;;;;;;-144.99;100.00;52660.09;5070764;28;20326;-71
2021/12/18 10:49:48;;;;;;;;;;;;;;;-144.99;100.00;52653.97;5063857;28;20384;-71
2021/12/18 10:52:15;;;;;;;;;;;;;;;-144.99;100.00;52629.50;5070840;28;20040;-71
2021/12/18 10:54:41;;;;;;;;;;;;;;;-144.99;100.00;52635.63;5068239;28;20000;-71
2021/12/18 10:57:19;;;;;;;;;;;;;;;-144.99;100.00;52611.16;5072084;28;19977;-72
2021/12/18 10:59:46;;;;;;;;;;;;;;;-144.99;100.00;52651.94;5073232;28;21342;-71
2021/12/18 11:02:15;;;;;;;;;;;;;;;-144.99;100.00;52647.84;5071095;28;20216;-71
2021/12/18 11:04:42;;;;;;;;;;;;;;;-144.99;100.00;52611.16;5067572;28;20385;-71
2021/12/18 11:07:18;;;;;;;;;;;;;;;-144.99;100.00;52631.53;5068006;28;20457;-71
2021/12/18 11:09:49;;;;;;;;;;;;;;;-144.99;100.00;52627.47;5062089;28;19984;-72
2021/12/18 11:15:01;;;;;;;;;;;;;;;-144.99;100.00;52635.63;5084946;28;20015;-71
2021/12/18 11:17:28;;;;;;;;;;;;;;;-144.99;100.00;52623.38;5084975;28;20223;-74
2021/12/18 11:19:55;;;;;;;;;;;;;;;-144.99;100.00;52631.53;5084818;28;19997;-71
2021/12/18 11:22:23;;;;;;;;;;;;;;;-144.99;100.00;52619.31;5089161;28;20040;-71
2021/12/18 11:24:58;;;;;;;;;;;;;;;-144.99;100.00;52643.78;5082851;28;20008;-71
2021/12/18 11:27:25;;;;;;;;;;;;;;;-144.99;100.00;52637.66;5077639;28;19987;-71
2021/12/18 11:29:55;;;;;;;;;;;;;;;-144.99;100.00;52639.69;5074969;28;19991;-76
2021/12/18 11:32:24;;;;;;;;;;;;;;;-144.99;100.00;52627.47;5075601;28;20042;-71
2021/12/18 11:34:52;;;;;;;;;;;;;;;-144.99;100.00;52619.31;5074510;28;20016;-71
2021/12/18 11:37:20;;;;;;;;;;;;;;;-144.99;100.00;52656.00;5067810;28;19978;-71
2021/12/18 11:39:48;;;;;;;;;;;;;;;-144.99;100.00;52631.53;5073079;28;20000;-72
2021/12/18 11:42:15;;;;;;;;;;;;;;;-144.99;100.00;52633.59;5075166;28;19987;-73
2021/12/18 11:44:43;;;;;;;;;;;;;;;-144.99;100.00;52647.84;5073826;28;20017;-71
2021/12/18 11:47:26;;;;;;;;;;;;;;;-144.99;100.00;52633.59;5072793;28;20429;-71
2021/12/18 11:49:54;;;;;;;;;;;;;;;-144.99;100.00;52645.81;5074493;28;19985;-71
2021/12/18 11:52:20;;;;;;;;;;;;;;;-144.99;100.00;52656.00;5074306;28;19983;-71
2021/12/18 11:54:50;;;;;;;;;;;;;;;-144.99;100.00;52619.31;5073872;28;20043;-71
2021/12/18 11:57:35;;;;;;;;;;;;;;;-144.99;100.00;52639.69;5071410;28;19984;-73
2021/12/18 12:00:02;;;;;;;;;;;;;;;-144.99;100.00;52664.16;5073545;28;20000;-73
2021/12/18 12:02:42;;;;;;;;;;;;;;;-144.99;100.00;52627.47;5070652;28;19977;-73
2021/12/18 12:05:09;;;;;;;;;;;;;;;-144.99;100.00;52619.31;5069247;28;20475;-71
2021/12/18 12:07:37;;;;;;;;;;;;;;;-144.99;100.00;52623.38;5073278;28;19992;-72
2021/12/18 12:10:11;;;;;;;;;;;;;;;-144.99;100.00;52684.53;5073760;28;19980;-71
2021/12/18 12:12:48;;;;;;;;;;;;;;;-144.99;100.00;52672.31;5074163;28;20425;-71
2021/12/18 12:15:15;;;;;;;;;;;;;;;-144.99;100.00;52627.47;5074877;28;20259;-71
2021/12/18 12:17:53;;;;;;;;;;;;;;;-144.99;100.00;52627.47;5074131;28;19996;-71
2021/12/18 12:20:32;;;;;;;;;;;;;;;-144.99;100.00;52619.31;5073454;28;19997;-70
2021/12/18 12:23:01;;;;;;;;;;;;;;;-144.99;100.00;52598.94;5073768;28;19981;-71
2021/12/18 12:25:43;;;;;;;;;;;;;;;-144.99;100.00;52656.00;5074046;28;19996;-70
2021/12/18 12:28:11;;;;;;;;;;;;;;;-144.99;100.00;52627.47;5075070;28;20421;-73
2021/12/18 12:30:43;;;;;;;;;;;;;;;-144.99;100.00;52586.69;5074098;28;19998;-70
2021/12/18 12:33:11;;;;;;;;;;;;;;;-144.99;100.00;52541.84;5073387;28;20399;-71
2021/12/18 12:35:58;;;;;;;;;;;;;;;-144.99;100.00;52439.94;5073109;28;20074;-71
2021/12/18 12:38:25;;;;;;;;;;;;;;;-144.99;96.46;52541.84;5068290;28;19977;-71
2021/12/18 12:40:53;;;;;;;;;;;;;;;-144.99;90.69;52517.41;5073447;28;19997;-71
2021/12/18 12:43:23;;;;;;;;;;;;;;;-144.99;84.06;52427.72;5083630;28;19992;-70
2021/12/18 12:45:51;;;;;;;;;;;;;;;-144.99;72.96;52407.31;5079986;28;20326;-70
2021/12/18 12:48:18;;;;;;;;;;;;;;;-144.99;65.87;52399.19;5074893;28;20069;-71
2021/12/18 12:50:54;;;;;;;;;;;;;;;-144.99;63.38;52378.78;5073436;28;19977;-71
2021/12/18 12:53:20;;;;;;;;;;;;;;;-144.99;59.20;52366.56;5073338;28;19980;-71
2021/12/18 12:55:47;;;;;;;;;;;;;;;-144.99;54.83;52407.31;5073225;28;19981;-70